Shockey Truck Trail (448) Station Data

Red Flag Warning: No
Fire Weather Zone: 258
SDGE Region: Mountain Empire
Lat/Lon: 32.634/-116.423

Observations

Time Wind Speed/Gust Temp(F) RH Fuel Moist Fuel Temp(F) Dewpt(F) Tmax(F) Tmin(F) Accum Precip 10-min Precip SL Press(mb)
6/22 5:00am 46 5 G 8 62° 47% - - 41° 67.7° 61.9° - - 874.0
6/22 4:50am 52 5 G 7 63° 48% - - 42° 67.7° 62.1° - - 875.0
6/22 4:40am 37 5 G 7 63° 48% - - 43° 67.7° 62.1° - - 875.0
6/22 4:30am 42 6 G 9 64° 44% - - 42° 67.7° 63° - - 873.0
6/22 4:20am 53 7 G 9 64° 44% - - 42° 67.7° 63° - - 874.0
6/22 4:10am 42 6 G 8 64° 46% - - 42° 67.7° 63° - - 874.0
6/22 4:00am 38 6 G 8 63° 47% - - 43° 67.7° 63° - - 875.0
6/22 3:50am 34 5 G 7 63° 47% - - 43° 67.7° 63° - - 875.0
6/22 3:40am 41 6 G 9 64° 47% - - 43° 67.7° 63.4° - - 875.0
6/22 3:30am 48 7 G 10 65° 46% - - 43° 67.7° 63.9° - - 875.0
6/22 3:20am 46 7 G 10 65° 46% - - 44° 67.7° 63.9° - - 875.0
6/22 3:10am 45 7 G 10 65° 46% - - 44° 67.7° 63.9° - - 875.0
6/22 3:00am 42 6 G 9 64° 48% - - 44° 67.7° 63.9° - - 876.0
6/22 2:50am 44 6 G 9 64° 49% - - 45° 67.7° 63.9° - - 876.0
6/22 2:40am 45 5 G 8 65° 50% - - 45° 67.7° 64.1° - - 876.0
6/22 2:30am 46 5 G 8 64° 50% - - 46° 67.7° 64.1° - - 877.0
6/22 2:20am 51 5 G 8 65° 50% - - 46° 67.7° 64.9° - - 876.0
6/22 2:10am 44 5 G 8 65° 50% - - 46° 67.7° 64.9° - - 876.0
6/22 2:00am 40 6 G 9 66° 49% - - 46° 67.7° 64.9° - - 876.0
6/22 1:50am 49 7 G 9 66° 49% - - 46° 67.7° 64.9° - - 876.0
6/22 1:40am 56 7 G 10 66° 49% - - 47° 67.7° 64.9° - - 877.0
6/22 1:30am 41 6 G 8 66° 51% - - 47° 67.7° 64.9° - - 877.0
6/22 1:20am 34 5 G 7 65° 52% - - 47° 67.7° 64.9° - - 877.0
6/22 1:10am 32 4 G 7 66° 51% - - 47° 67.7° 65.1° - - 877.0
6/22 1:00am 52 6 G 9 67° 49% - - 47° 67.7° 66.3° - - 877.0
6/22 12:50am 58 7 G 9 68° 48% - - 47° 67.7° 66.3° - - 876.0
6/22 12:40am 47 5 G 7 67° 49% - - 47° 67.7° 66.3° - - 877.0
6/22 12:30am 33 5 G 6 67° 49% - - 47° 67.7° 66.3° - - 877.0
6/22 12:20am 35 4 G 6 67° 49% - - 47° 67.7° 66.6° - - 876.0
6/22 12:10am 37 5 G 7 67° 48% - - 47° 67.7° 67.1° - - 876.0
6/22 12:00am 34 4 G 6 68° 47% - - 47° 102.2° 60.2° - - 876.0
6/21 11:50pm 36 4 G 6 68° 47% - - 47° 102.2° 60.2° - - 876.0
6/21 11:40pm 38 4 G 6 68° 46% - - 47° 102.2° 60.2° - - 876.0
6/21 11:30pm 43 5 G 7 69° 45% - - 47° 102.2° 60.2° - - 876.0
6/21 11:20pm 53 7 G 9 70° 43% - - 47° 102.2° 60.2° - - 875.0
6/21 11:10pm 54 6 G 9 71° 43% - - 47° 102.2° 60.2° - - 875.0
6/21 11:00pm 53 7 G 8 71° 42% - - 47° 102.2° 60.2° - - 875.0
6/21 10:50pm 56 7 G 9 72° 41% - - 47° 102.2° 60.2° - - 875.0
6/21 10:40pm 49 6 G 8 72° 41% - - 47° 102.2° 60.2° - - 875.0
6/21 10:30pm 44 5 G 7 72° 41% - - 47° 102.2° 60.2° - - 874.0
6/21 10:20pm 41 5 G 7 72° 40% - - 46° 102.2° 60.2° - - 874.0
6/21 10:10pm 34 5 G 7 72° 39% - - 46° 102.2° 60.2° - - 874.0
6/21 10:00pm 51 5 G 7 74° 37% - - 46° 102.2° 60.2° - - 873.0
6/21 9:50pm 57 6 G 8 74° 36% - - 46° 102.2° 60.2° - - 873.0
6/21 9:40pm 46 5 G 7 75° 35% - - 45° 102.2° 60.2° - - 873.0
6/21 9:30pm 47 4 G 6 76° 34% - - 45° 102.2° 60.2° - - 873.0
6/21 9:20pm 57 3 G 5 77° 32% - - 45° 102.2° 60.2° - - 873.0
6/21 9:10pm 59 4 G 4 79° 30% - - 45° 102.2° 60.2° - - 872.0
6/21 9:00pm 44 3 G 4 79° 31% - - 45° 102.2° 60.2° - - 872.0
6/21 8:50pm 26 3 G 4 79° 30% - - 45° 102.2° 60.2° - - 872.0
6/21 8:40pm 30 2 G 3 82° 28% - - 45° 102.2° 60.2° - - 872.0
6/21 8:30pm 7 2 G 2 83° 26% - - 45° 102.2° 60.2° - - 872.0
6/21 8:20pm 284 1 G 2 84° 25% - - 45° 102.2° 60.2° - - 872.0
6/21 8:10pm 287 2 G 4 85° 25% - - 45° 102.2° 60.2° - - 872.0
6/21 8:00pm 287 2 G 4 85° 24% - - 45° 102.2° 60.2° - - 872.0
6/21 7:50pm 241 4 G 5 86° 24% - - 45° 102.2° 60.2° - - 872.0
6/21 7:40pm 236 5 G 6 86° 24% - - 45° 102.2° 60.2° - - 872.0
6/21 7:30pm 246 6 G 8 88° 23% - - 46° 102.2° 60.2° - - 873.0
6/21 7:20pm 242 6 G 8 89° 23% - - 46° 102.2° 60.2° - - 873.0
6/21 7:10pm 241 6 G 10 90° 21% - - 45° 102.2° 60.2° - - 873.0
6/21 7:00pm 239 6 G 10 91° 20% - - 45° 102.2° 60.2° - - 873.0
6/21 6:50pm 234 7 G 10 92° 19% - - 45° 102.2° 60.2° - - 873.0
6/21 6:40pm 229 8 G 11 93° 18% - - 44° 102.2° 60.2° - - 873.0
6/21 6:30pm 234 7 G 11 94° 17% - - 43° 102.2° 60.2° - - 873.0
6/21 6:20pm 232 7 G 10 94° 18% - - 45° 102.2° 60.2° - - 873.0
6/21 6:10pm 237 7 G 10 95° 17% - - 44° 102.2° 60.2° - - 873.0
6/21 6:00pm 246 7 G 11 97° 12% - - 36° 102.2° 60.2° - - 872.0
6/21 5:50pm 244 7 G 12 97° 10% - - 30° 102.2° 60.2° - - 871.0
6/21 5:40pm 247 8 G 13 98° 9% - - 31° 102.2° 60.2° - - 871.0
6/21 5:30pm 246 8 G 13 98° 10% - - 32° 102.2° 60.2° - - 872.0
6/21 5:20pm 245 8 G 15 98° 9% - - 29° 102.2° 60.2° - - 871.0
6/21 5:10pm 235 9 G 16 99° 8% - - 27° 102.2° 60.2° - - 871.0
6/21 5:00pm 227 9 G 14 99° 8% - - 26° 102.2° 60.2° - - 871.0
6/21 4:50pm 250 8 G 14 99° 7% - - 24° 102.2° 60.2° - - 871.0
6/21 4:40pm 229 8 G 16 99° 8% - - 28° 102.2° 60.2° - - 871.0
6/21 4:30pm 225 10 G 18 99° 8% - - 27° 102.2° 60.2° - - 871.0
6/21 4:20pm 231 10 G 16 100° 7% - - 26° 102.2° 60.2° - - 872.0
6/21 4:10pm 232 8 G 17 100° 7% - - 26° 102.2° 60.2° - - 872.0
6/21 4:00pm 238 9 G 14 100° 7% - - 25° 102.2° 60.2° - - 872.0
6/21 3:50pm 235 8 G 15 101° 8% - - 28° 102.2° 60.2° - - 872.0
6/21 3:40pm 229 11 G 18 100° 8% - - 29° 102.2° 60.2° - - 872.0
6/21 3:30pm 221 11 G 18 100° 8% - - 28° 102.2° 60.2° - - 872.0
6/21 3:20pm 229 10 G 18 101° 8% - - 28° 102.2° 60.2° - - 872.0
6/21 3:10pm 237 10 G 14 101° 8% - - 27° 102.2° 60.2° - - 871.0
6/21 3:00pm 226 11 G 17 101° 7% - - 26° 102.2° 60.2° - - 871.0
6/21 2:50pm 242 10 G 15 101° 8% - - 28° 102.2° 60.2° - - 872.0
6/21 2:40pm 234 9 G 19 101° 8% - - 28° 102.2° 60.2° - - 872.0
6/21 2:30pm 242 9 G 16 101° 8% - - 29° 102.2° 60.2° - - 872.0
6/21 2:20pm 242 9 G 16 101° 8% - - 30° 102.2° 60.2° - - 872.0
6/21 2:10pm 243 9 G 15 101° 8% - - 29° 101.9° 60.2° - - 871.0
6/21 2:00pm 218 11 G 17 100° 8% - - 27° 101.9° 60.2° - - 871.0
6/21 1:50pm 224 10 G 17 100° 8% - - 28° 101.9° 60.2° - - 871.0
6/21 1:40pm 220 11 G 17 100° 8% - - 28° 101.9° 60.2° - - 871.0
6/21 1:30pm 223 9 G 18 101° 7% - - 26° 101.9° 60.2° - - 871.0
6/21 1:20pm 238 9 G 14 101° 7% - - 25° 101.9° 60.2° - - 871.0
6/21 1:10pm 228 10 G 17 101° 7% - - 25° 101.9° 60.2° - - 871.0
6/21 1:00pm 227 10 G 17 101° 7% - - 24° 101.9° 60.2° - - 870.0
6/21 12:50pm 226 9 G 15 101° 7% - - 25° 101.9° 60.2° - - 870.0
6/21 12:40pm 225 10 G 16 101° 6% - - 22° 101.2° 60.2° - - 870.0
6/21 12:30pm 221 10 G 17 100° 7% - - 24° 101.1° 60.2° - - 870.0
6/21 12:20pm 216 9 G 16 100° 7% - - 24° 101.1° 60.2° - - 870.0
6/21 12:10pm 225 8 G 14 100° 7% - - 24° 101.1° 60.2° - - 870.0
6/21 12:00pm 227 7 G 14 100° 7% - - 24° 101.1° 60.2° - - 870.0
6/21 11:50am 240 7 G 13 99° 8% - - 27° 101.1° 60.2° - - 870.0
6/21 11:40am 229 5 G 12 99° 8% - - 27° 101.1° 60.2° - - 870.0
6/21 11:30am 233 6 G 12 100° 8% - - 28° 101.1° 60.2° - - 870.0
6/21 11:20am 249 5 G 11 100° 8% - - 27° 101.1° 60.2° - - 870.0
6/21 11:10am 248 4 G 9 100° 6% - - 23° 101.1° 60.2° - - 869.0
6/21 11:00am 250 6 G 13 99° 8% - - 27° 99.2° 60.2° - - 869.0
6/21 10:50am 248 6 G 14 98° 8% - - 26° 99° 60.2° - - 869.0
6/21 10:40am 239 4 G 9 98° 8% - - 26° 98.2° 60.2° - - 869.0
6/21 10:30am 241 5 G 9 97° 8% - - 27° 97.6° 60.2° - - 868.0
6/21 10:20am 231 5 G 8 96° 8% - - 26° 96.6° 60.2° - - 868.0
6/21 10:10am 244 4 G 7 96° 9% - - 27° 96.3° 60.2° - - 868.0
6/21 10:00am 233 4 G 6 94° 9% - - 27° 94.9° 60.2° - - 868.0
6/21 9:50am 215 3 G 6 94° 9% - - 27° 94.5° 60.2° - - 868.0
6/21 9:40am 193 2 G 4 94° 10% - - 28° 94.1° 60.2° - - 868.0
6/21 9:30am 221 2 G 5 92° 10% - - 28° 92.7° 60.2° - - 867.0
6/21 9:20am 248 2 G 4 92° 9% - - 26° 92.2° 60.2° - - 867.0
6/21 9:10am 241 1 G 3 91° 10% - - 28° 91.7° 60.2° - - 867.0
6/21 9:00am 282 1 G 2 90° 11% - - 27° 90.5° 60.2° - - 867.0
6/21 8:50am 228 1 G 3 89° 12% - - 31° 89.7° 60.2° - - 867.0
6/21 8:40am 281 1 G 3 89° 14% - - 34° 89.7° 60.2° - - 868.0
6/21 8:30am 25 2 G 3 86° 16% - - 35° 87.5° 60.2° - - 868.0
6/21 8:20am 30 2 G 3 83° 23% - - 41° 84.8° 60.2° - - 870.0
6/21 8:10am 30 3 G 4 81° 26% - - 42° 82° 60.2° - - 870.0
6/21 8:00am 30 3 G 5 78° 28% - - 42° 79.8° 60.2° - - 870.0
6/21 7:50am 37 4 G 6 75° 29% - - 41° 76.6° 60.2° - - 870.0
6/21 7:40am 41 5 G 8 73° 31% - - 41° 74.3° 60.2° - - 870.0
6/21 7:30am 43 5 G 7 71° 31% - - 40° 72.5° 60.2° - - 870.0
6/21 7:20am 41 5 G 8 70° 33% - - 39° 70.6° 60.2° - - 870.0
6/21 7:10am 40 6 G 9 68° 34% - - 38° 68.8° 60.2° - - 871.0
6/21 7:00am 42 6 G 9 66° 37% - - 39° 66.9° 60.2° - - 871.0
6/21 6:50am 33 5 G 8 65° 38% - - 39° 66.8° 60.2° - - 871.0
6/21 6:40am 30 5 G 7 64° 39% - - 38° 66.8° 60.2° - - 872.0
6/21 6:30am 37 5 G 8 63° 40% - - 39° 66.8° 60.2° - - 872.0
6/21 6:20am 41 5 G 8 62° 42% - - 39° 66.8° 60.2° - - 873.0
6/21 6:10am 41 6 G 8 62° 41% - - 39° 66.8° 60.2° - - 872.0
6/21 6:00am 45 6 G 9 63° 40% - - 38° 66.8° 60.2° - - 872.0
6/21 5:50am 44 7 G 10 62° 41% - - 38° 66.8° 60.2° - - 872.0
6/21 5:40am 46 7 G 10 62° 42% - - 39° 66.8° 60.2° - - 872.0
6/21 5:30am 45 7 G 10 62° 43% - - 39° 66.8° 60.2° - - 873.0
6/21 5:20am 29 6 G 7 62° 43% - - 40° 66.8° 60.2° - - 873.0
6/21 5:10am 34 5 G 8 62° 44% - - 40° 66.8° 60.2° - - 873.0
6/21 5:00am 30 5 G 7 62° 46% - - 41° 66.8° 60.2° - - 874.0
6/21 4:50am 25 4 G 7 61° 47% - - 41° 66.8° 60.2° - - 874.0
6/21 4:40am 31 4 G 6 61° 47% - - 41° 66.8° 60.2° - - 874.0
6/21 4:30am 29 4 G 6 61° 47% - - 41° 66.8° 60.2° - - 875.0
6/21 4:20am 21 5 G 6 61° 47% - - 41° 66.8° 60.2° - - 874.0
6/21 4:10am 26 4 G 6 62° 46% - - 41° 66.8° 61.2° - - 874.0
6/21 4:00am 24 4 G 5 62° 46% - - 41° 66.8° 61.2° - - 874.0
6/21 3:50am 40 3 G 6 62° 46% - - 41° 66.8° 61.7° - - 874.0
6/21 3:40am 51 6 G 8 63° 45% - - 41° 66.8° 61.9° - - 874.0
6/21 3:30am 39 4 G 6 62° 46% - - 41° 66.8° 61.9° - - 874.0
6/21 3:20am 30 5 G 6 63° 45% - - 41° 66.8° 62.3° - - 874.0
6/21 3:10am 35 5 G 7 64° 43% - - 41° 66.8° 62.3° - - 873.0
6/21 3:00am 44 5 G 8 64° 44% - - 42° 66.8° 62.3° - - 874.0
6/21 2:50am 38 5 G 8 63° 45% - - 42° 66.8° 62.3° - - 874.0
6/21 2:40am 31 5 G 8 63° 47% - - 42° 66.8° 62.3° - - 875.0
6/21 2:30am 33 5 G 7 63° 47% - - 43° 66.8° 62.8° - - 875.0
6/21 2:20am 37 5 G 8 63° 48% - - 43° 66.8° 62.9° - - 875.0
6/21 2:10am 38 6 G 9 63° 49% - - 44° 66.8° 62.9° - - 876.0
6/21 2:00am 36 5 G 7 64° 48% - - 44° 66.8° 63.1° - - 875.0
6/21 1:50am 42 5 G 8 65° 46% - - 44° 66.8° 63.8° - - 875.0
6/21 1:40am 43 7 G 11 66° 45% - - 44° 66.8° 63.8° - - 875.0
6/21 1:30am 41 5 G 9 65° 48% - - 45° 66.7° 63.8° - - 876.0
6/21 1:20am 43 5 G 8 65° 49% - - 45° 66.7° 63.8° - - 876.0
6/21 1:10am 37 5 G 7 65° 50% - - 46° 66.7° 63.8° - - 877.0
6/21 1:00am 30 4 G 6 64° 52% - - 46° 66.7° 63.8° - - 877.0
6/21 12:50am 28 5 G 7 64° 53% - - 47° 66.7° 63.8° - - 878.0
6/21 12:40am 24 5 G 6 64° 53% - - 47° 66.7° 64.1° - - 878.0
6/21 12:30am 27 4 G 6 65° 53% - - 47° 66.7° 64.2° - - 878.0
6/21 12:20am 28 4 G 6 65° 52% - - 47° 66.7° 64.7° - - 878.0
6/21 12:10am 33 4 G 5 66° 52% - - 48° 66.7° 65.6° - - 877.0
6/21 12:00am 52 5 G 8 67° 49% - - 48° 104.4° 60.8° - - 877.0
6/20 11:50pm 46 5 G 7 67° 50% - - 48° 104.4° 60.8° - - 877.0
6/20 11:40pm 38 4 G 7 68° 50% - - 48° 104.4° 60.8° - - 877.0
6/20 11:30pm 46 5 G 9 69° 49% - - 49° 104.4° 60.8° - - 877.0
6/20 11:20pm 50 6 G 9 69° 48% - - 49° 104.4° 60.8° - - 877.0
6/20 11:10pm 49 6 G 8 70° 48% - - 49° 104.4° 60.8° - - 877.0
6/20 11:00pm 42 5 G 7 70° 48% - - 49° 104.4° 60.8° - - 877.0
6/20 10:50pm 47 5 G 8 70° 47% - - 49° 104.4° 60.8° - - 877.0
6/20 10:40pm 53 6 G 9 72° 44% - - 49° 104.4° 60.8° - - 876.0
6/20 10:30pm 54 7 G 9 72° 44% - - 49° 104.4° 60.8° - - 876.0
6/20 10:20pm 47 6 G 7 73° 44% - - 49° 104.4° 60.8° - - 876.0
6/20 10:10pm 30 5 G 7 73° 44% - - 50° 104.4° 60.8° - - 876.0
6/20 10:00pm 41 5 G 7 74° 42% - - 49° 104.4° 60.8° - - 876.0
6/20 9:50pm 50 4 G 7 76° 40% - - 50° 104.4° 60.8° - - 875.0
6/20 9:40pm 41 3 G 4 76° 41% - - 50° 104.4° 60.8° - - 876.0
6/20 9:30pm 23 3 G 3 77° 38% - - 50° 104.4° 60.8° - - 875.0
6/20 9:20pm 5 2 G 3 80° 34% - - 49° 104.4° 60.8° - - 874.0
6/20 9:10pm 129 0 G 2 81° 33% - - 49° 104.4° 60.8° - - 874.0
6/20 9:00pm 160 1 G 2 81° 33% - - 49° 104.4° 60.8° - - 874.0
6/20 8:50pm 189 1 G 3 81° 34% - - 50° 104.4° 60.8° - - 874.0
6/20 8:40pm 220 2 G 4 82° 34% - - 50° 104.4° 60.8° - - 874.0
6/20 8:30pm 240 5 G 6 83° 32% - - 50° 104.4° 60.8° - - 874.0
6/20 8:20pm 248 4 G 6 84° 31% - - 50° 104.4° 60.8° - - 874.0
6/20 8:10pm 242 4 G 6 85° 30% - - 50° 104.4° 60.8° - - 874.0
6/20 8:00pm 234 4 G 6 86° 29% - - 50° 104.4° 60.8° - - 874.0
6/20 7:50pm 236 5 G 7 87° 27% - - 49° 104.4° 60.8° - - 874.0
6/20 7:40pm 225 5 G 7 88° 26% - - 49° 104.4° 60.8° - - 874.0
6/20 7:30pm 236 5 G 7 90° 24% - - 48° 104.4° 60.8° - - 873.0
6/20 7:20pm 235 5 G 10 91° 23% - - 48° 104.4° 60.8° - - 873.0
6/20 7:10pm 243 5 G 9 91° 22% - - 47° 104.4° 60.8° - - 873.0
6/20 7:00pm 247 6 G 12 92° 21% - - 47° 104.4° 60.8° - - 873.0
6/20 6:50pm 256 7 G 12 93° 21% - - 47° 104.4° 60.8° - - 874.0
6/20 6:40pm 259 8 G 14 93° 21% - - 47° 104.4° 60.8° - - 874.0
6/20 6:30pm 254 8 G 13 94° 20% - - 47° 104.4° 60.8° - - 874.0
6/20 6:20pm 247 9 G 14 94° 20% - - 47° 104.4° 60.8° - - 874.0
6/20 6:10pm 249 10 G 14 95° 20% - - 47° 104.4° 60.8° - - 874.0
6/20 6:00pm 243 9 G 15 96° 19% - - 47° 104.4° 60.8° - - 874.0